createdAt,value
2024-05-09T04:02:43.946Z,2.60
2024-05-09T04:05:11.445Z,2.70
2024-05-09T04:07:38.759Z,3.22
2024-05-09T04:10:11.099Z,3.17
2024-05-09T04:12:41.189Z,3.10
2024-05-09T04:15:12.067Z,2.80
2024-05-09T04:17:40.742Z,2.50
2024-05-09T04:20:12.473Z,2.58
2024-05-09T04:22:45.749Z,3.00
2024-05-09T04:25:13.091Z,3.10
2024-05-09T04:27:40.360Z,2.88
2024-05-09T04:30:12.448Z,3.33
2024-05-09T04:32:46.432Z,3.60
2024-05-09T04:35:16.556Z,3.15
2024-05-09T04:37:44.068Z,3.50
2024-05-09T04:40:20.994Z,3.30
2024-05-09T04:42:56.300Z,2.95
2024-05-09T04:45:23.709Z,2.53
2024-05-09T04:47:51.805Z,2.80
2024-05-09T04:50:29.052Z,3.45
2024-05-09T04:53:02.855Z,4.25
2024-05-09T04:55:30.280Z,3.90
2024-05-09T04:57:57.992Z,3.42
2024-05-09T05:00:34.733Z,3.25
2024-05-09T05:03:07.611Z,3.80
2024-05-09T05:05:38.263Z,3.70
2024-05-09T05:08:10.712Z,3.58
2024-05-09T05:10:38.262Z,3.33
2024-05-09T05:13:21.903Z,3.15
2024-05-09T05:15:53.579Z,2.60
2024-05-09T05:18:22.321Z,3.00
2024-05-09T05:20:50.267Z,3.40
2024-05-09T05:23:22.046Z,3.50
2024-05-09T05:25:52.456Z,3.35
2024-05-09T05:28:20.676Z,3.13
2024-05-09T05:30:48.336Z,3.47
2024-05-09T05:33:20.104Z,3.80
2024-05-09T05:35:48.220Z,3.70
2024-05-09T05:38:16.174Z,3.80
2024-05-09T05:40:43.539Z,3.65
2024-05-09T05:43:17.639Z,3.28
2024-05-09T05:45:45.720Z,3.60
2024-05-09T05:48:17.160Z,3.25
2024-05-09T05:50:45.540Z,2.92
2024-05-09T05:53:13.018Z,3.28
2024-05-09T05:55:41.936Z,3.45
2024-05-09T05:58:14.797Z,4.28
2024-05-09T06:00:42.980Z,3.38
2024-05-09T06:03:14.710Z,3.20
2024-05-09T06:05:46.803Z,3.03
2024-05-09T06:08:14.666Z,2.80
2024-05-09T06:10:42.557Z,3.22
2024-05-09T06:13:11.544Z,3.08
2024-05-09T06:15:40.409Z,3.13
2024-05-09T06:18:10.755Z,3.60
2024-05-09T06:20:42.912Z,4.05
2024-05-09T06:23:11.887Z,3.83
2024-05-09T06:25:40.332Z,3.47
2024-05-09T06:28:08.687Z,3.13
2024-05-09T06:30:40.445Z,2.58
2024-05-09T06:33:13.367Z,3.40
2024-05-09T06:35:43.535Z,3.67
2024-05-09T06:38:11.721Z,3.65
2024-05-09T06:40:42.530Z,3.15
2024-05-09T06:43:17.576Z,2.58
2024-05-09T06:45:52.743Z,2.90
2024-05-09T06:48:22.350Z,2.42
2024-05-09T06:50:54.288Z,2.60
2024-05-09T06:53:23.894Z,2.90
2024-05-09T06:55:51.617Z,3.13
2024-05-09T06:58:19.118Z,2.95
2024-05-09T07:00:46.964Z,2.40
2024-05-09T07:03:17.157Z,2.05
2024-05-09T07:05:47.699Z,1.95
2024-05-09T07:08:16.842Z,2.38
2024-05-09T07:10:44.534Z,2.60
2024-05-09T07:13:13.537Z,2.22
2024-05-09T07:15:41.662Z,1.92
2024-05-09T07:18:15.674Z,2.42
2024-05-09T07:20:44.134Z,2.08
2024-05-09T07:23:12.593Z,1.80
2024-05-09T07:25:41.429Z,2.22
2024-05-09T07:28:19.676Z,2.63
2024-05-09T07:30:47.735Z,2.40
2024-05-09T07:33:21.363Z,2.50
2024-05-09T07:35:50.218Z,2.67
2024-05-09T07:38:17.732Z,2.38
2024-05-09T07:40:45.382Z,2.10
2024-05-09T07:43:16.348Z,2.20
2024-05-09T07:45:52.346Z,1.98
2024-05-09T07:52:39.260Z,1.75
2024-05-09T07:53:47.809Z,2.00
2024-05-09T07:56:21.059Z,1.50
2024-05-09T07:58:51.654Z,1.80
2024-05-09T08:01:20.022Z,1.92
2024-05-09T08:03:50.657Z,2.03
2024-05-09T08:06:18.488Z,1.70
2024-05-09T08:08:47.715Z,1.60
2024-05-09T08:11:15.416Z,2.03
2024-05-09T08:13:43.503Z,1.33
2024-05-09T08:16:10.795Z,1.20
2024-05-09T08:18:39.639Z,1.17
2024-05-09T08:21:08.173Z,1.00
2024-05-09T08:23:36.488Z,1.40
2024-05-09T08:26:03.869Z,1.25
2024-05-09T08:28:31.291Z,1.13
2024-05-09T08:30:58.702Z,1.55
2024-05-09T08:33:26.672Z,1.25
2024-05-09T08:35:54.700Z,1.20
2024-05-09T08:38:22.320Z,1.48
2024-05-09T08:40:49.964Z,1.38
2024-05-09T08:43:20.284Z,1.70
2024-05-09T08:45:50.220Z,1.10
2024-05-09T08:48:19.779Z,1.42
2024-05-09T08:50:49.859Z,1.45
2024-05-09T08:53:19.291Z,1.58
2024-05-09T08:55:47.082Z,1.77
2024-05-09T08:58:18.183Z,2.05
2024-05-09T09:00:47.378Z,2.10
2024-05-09T09:03:19.658Z,2.28
2024-05-09T09:05:59.017Z,2.00
2024-05-09T09:08:26.826Z,1.90
2024-05-09T09:10:59.762Z,2.15
2024-05-09T09:13:27.752Z,1.90
2024-05-09T09:15:58.668Z,1.70
2024-05-09T09:18:28.027Z,2.10
2024-05-09T09:20:56.042Z,1.67
2024-05-09T09:23:23.648Z,1.50
2024-05-09T09:25:52.040Z,1.30
2024-05-09T09:28:23.245Z,1.17
2024-05-09T09:30:51.085Z,1.35
2024-05-09T09:33:19.661Z,2.15
2024-05-09T09:35:47.163Z,1.20
2024-05-09T09:38:21.582Z,1.42
2024-05-09T09:43:20.606Z,1.35
2024-05-09T09:45:53.122Z,1.10
2024-05-09T09:48:22.836Z,1.10
2024-05-09T09:50:54.443Z,1.00
2024-05-09T09:53:23.352Z,1.00
2024-05-09T09:55:53.387Z,0.85
2024-05-09T09:58:21.482Z,0.60
2024-05-09T10:00:49.073Z,1.10
2024-05-09T10:03:16.608Z,1.02
2024-05-09T10:05:46.521Z,1.20
2024-05-09T10:08:16.581Z,1.10
2024-05-09T10:10:47.848Z,1.10
2024-05-09T10:13:16.314Z,2.17
2024-05-09T10:15:51.171Z,1.00
2024-05-09T10:18:28.115Z,0.85
2024-05-09T10:21:00.351Z,1.00
2024-05-09T10:23:36.331Z,1.10
2024-05-09T10:26:06.279Z,1.20
2024-05-09T10:28:36.977Z,0.95
2024-05-09T10:31:13.276Z,0.95
2024-05-09T10:33:51.874Z,1.15
2024-05-09T10:36:21.263Z,1.08
2024-05-09T10:38:50.275Z,1.30
2024-05-09T10:41:18.764Z,1.40
2024-05-09T10:43:47.567Z,1.65
2024-05-09T10:46:15.421Z,1.45
2024-05-09T10:48:44.830Z,1.17
2024-05-09T10:51:13.829Z,1.48
2024-05-09T10:53:42.381Z,1.30
2024-05-09T10:56:10.357Z,0.98
2024-05-09T10:58:37.666Z,1.30
2024-05-09T11:01:07.206Z,0.82
2024-05-09T11:03:35.861Z,1.20
2024-05-09T11:06:04.000Z,1.20
2024-05-09T11:08:32.881Z,0.85
2024-05-09T11:11:00.584Z,1.45
2024-05-09T11:13:32.627Z,1.27
2024-05-09T11:16:00.841Z,1.20
2024-05-09T11:18:55.947Z,1.67
2024-05-09T11:21:24.585Z,1.40
2024-05-09T11:23:52.410Z,1.65
2024-05-09T11:26:21.718Z,1.27
2024-05-09T11:28:50.907Z,1.10
2024-05-09T11:31:19.154Z,0.93
2024-05-09T11:33:47.115Z,1.30
2024-05-09T11:36:15.879Z,1.80
2024-05-09T11:38:43.287Z,2.15
2024-05-09T11:41:17.900Z,1.25
2024-05-09T11:43:45.473Z,1.30
2024-05-09T11:46:13.059Z,1.58
2024-05-09T11:48:41.600Z,1.15
2024-05-09T11:51:09.341Z,1.35
2024-05-09T11:53:36.709Z,0.90
2024-05-09T11:56:04.378Z,1.27
2024-05-09T11:58:36.950Z,0.90
2024-05-09T12:01:04.672Z,1.10
2024-05-09T12:03:32.477Z,1.10
2024-05-09T12:06:00.440Z,1.20
2024-05-09T12:08:28.080Z,1.15
2024-05-09T12:10:55.881Z,1.10
2024-05-09T12:13:23.721Z,1.10
2024-05-09T12:15:51.491Z,1.00
2024-05-09T12:18:18.924Z,0.80
2024-05-09T12:20:46.980Z,0.77
2024-05-09T12:23:14.485Z,1.15
2024-05-09T12:25:41.968Z,1.33
2024-05-09T12:28:09.926Z,0.98
2024-05-09T12:30:40.550Z,1.50
2024-05-09T12:33:11.613Z,1.30
2024-05-09T12:35:41.092Z,1.10
2024-05-09T12:38:09.783Z,0.85
2024-05-09T12:40:38.956Z,1.30
2024-05-09T12:43:08.326Z,1.08
2024-05-09T12:45:37.246Z,1.30
2024-05-09T12:48:07.571Z,1.20
2024-05-09T12:50:35.564Z,1.70
2024-05-09T12:53:04.271Z,1.90
2024-05-09T12:55:40.854Z,1.95
2024-05-09T12:58:19.361Z,2.05
2024-05-09T13:00:47.445Z,2.67
2024-05-09T13:03:15.314Z,2.25
2024-05-09T13:05:45.485Z,1.70
2024-05-09T13:08:13.935Z,2.17
2024-05-09T13:10:41.940Z,1.70
2024-05-09T13:13:11.440Z,2.30
2024-05-09T13:15:39.587Z,3.00
2024-05-09T13:18:10.356Z,2.00
2024-05-09T13:20:38.940Z,2.00
2024-05-09T13:23:08.417Z,2.05
2024-05-09T13:25:37.685Z,1.95
2024-05-09T13:28:07.330Z,1.73
2024-05-09T13:30:40.403Z,1.80
2024-05-09T13:33:12.057Z,1.83
2024-05-09T13:35:47.726Z,1.67
2024-05-09T13:38:19.942Z,2.30
2024-05-09T13:40:48.424Z,2.33
2024-05-09T13:43:16.308Z,2.50
2024-05-09T13:45:44.055Z,4.03
2024-05-09T13:48:11.858Z,8.95
2024-05-09T13:50:40.098Z,2.88
2024-05-09T13:53:08.766Z,1.10
2024-05-09T13:55:40.489Z,1.45
2024-05-09T13:58:09.331Z,1.40
2024-05-09T14:00:45.259Z,1.35
2024-05-09T14:03:18.798Z,1.00
2024-05-09T14:05:49.356Z,1.38
2024-05-09T14:08:19.948Z,1.27
2024-05-09T14:10:48.590Z,2.22
2024-05-09T14:13:16.667Z,1.95
2024-05-09T14:15:44.378Z,2.55
2024-05-09T14:18:13.837Z,2.20
2024-05-09T14:20:42.928Z,1.80
2024-05-09T14:23:11.120Z,3.42
2024-05-09T14:25:42.482Z,3.33
2024-05-09T14:28:13.074Z,1.30
2024-05-09T14:30:42.175Z,0.85
2024-05-09T14:33:10.608Z,0.80
2024-05-09T14:35:39.053Z,1.10
2024-05-09T14:38:08.389Z,1.15
2024-05-09T14:40:41.987Z,1.05
2024-05-09T14:43:13.821Z,1.23
2024-05-09T14:45:42.803Z,2.28
2024-05-09T14:48:15.112Z,2.70
2024-05-09T14:50:43.048Z,1.40
2024-05-09T14:53:11.793Z,1.80
2024-05-09T14:55:41.539Z,1.92
2024-05-09T14:58:11.122Z,1.95
2024-05-09T15:00:47.738Z,1.90
2024-05-09T15:03:22.361Z,1.70
2024-05-09T15:05:51.523Z,1.90
2024-05-09T15:08:20.185Z,1.40
2024-05-09T15:10:50.105Z,1.65
2024-05-09T15:13:20.090Z,1.65
2024-05-09T15:15:48.322Z,1.48
2024-05-09T15:18:17.048Z,1.80
2024-05-09T15:20:45.410Z,1.60
2024-05-09T15:23:13.525Z,1.67
2024-05-09T15:25:41.716Z,1.70
2024-05-09T15:28:09.566Z,0.98
2024-05-09T15:30:37.687Z,1.15
2024-05-09T15:33:06.754Z,6.20
2024-05-09T15:35:36.053Z,3.50
2024-05-09T15:38:04.512Z,1.17
2024-05-09T15:40:38.937Z,0.90
2024-05-09T15:43:10.986Z,1.70
2024-05-09T15:45:40.922Z,1.45
2024-05-09T15:48:10.649Z,1.48
2024-05-09T15:50:41.567Z,1.58
2024-05-09T15:53:12.607Z,1.83
2024-05-09T15:55:41.848Z,1.60
2024-05-09T15:58:10.662Z,1.75
2024-05-09T16:00:41.739Z,1.50
2024-05-09T16:03:13.541Z,1.40
2024-05-09T16:05:46.788Z,1.13
2024-05-09T16:08:15.893Z,1.10
2024-05-09T16:10:46.835Z,1.20
2024-05-09T16:13:15.894Z,1.50
2024-05-09T16:15:44.109Z,1.67
2024-05-09T16:18:12.645Z,1.95
2024-05-09T16:20:42.503Z,2.17
2024-05-09T16:23:11.669Z,2.17
2024-05-09T16:25:45.534Z,2.17
2024-05-09T16:28:13.392Z,2.13
2024-05-09T16:30:41.300Z,2.42
2024-05-09T16:33:11.052Z,2.08
2024-05-09T16:35:40.031Z,2.30
2024-05-09T16:38:07.998Z,1.98
2024-05-09T16:40:40.074Z,2.03
2024-05-09T16:43:10.964Z,1.95
2024-05-09T16:45:44.799Z,2.08
2024-05-09T16:48:14.384Z,3.05
2024-05-09T16:50:42.327Z,3.55
2024-05-09T16:53:09.691Z,3.10
2024-05-09T16:55:37.145Z,2.90
2024-05-09T16:58:06.783Z,2.88
2024-05-09T17:00:40.834Z,2.40
2024-05-09T17:03:14.440Z,2.75
2024-05-09T17:05:43.559Z,2.63
2024-05-09T17:08:11.657Z,3.72
2024-05-09T17:10:39.924Z,8.30
2024-05-09T17:13:08.242Z,2.28
2024-05-09T17:15:37.470Z,4.22
2024-05-09T17:18:07.782Z,4.57
2024-05-09T17:20:37.575Z,6.65
2024-05-09T17:23:13.720Z,10.57
2024-05-09T17:25:42.507Z,4.57
2024-05-09T17:28:11.232Z,3.72
2024-05-09T17:30:41.114Z,5.40
2024-05-09T17:33:11.230Z,4.85
2024-05-09T17:35:40.190Z,2.42
2024-05-09T17:38:07.844Z,7.63
2024-05-09T17:40:37.413Z,8.20
2024-05-09T17:43:10.753Z,9.90
2024-05-09T17:45:40.965Z,7.80
2024-05-09T17:48:10.674Z,5.22
2024-05-09T17:50:40.073Z,3.10
2024-05-09T17:53:08.798Z,3.58
2024-05-09T17:55:37.077Z,2.50
2024-05-09T17:58:05.635Z,2.60
2024-05-09T18:00:39.175Z,3.20
2024-05-09T18:03:13.989Z,8.32
2024-05-09T18:05:43.774Z,7.20
2024-05-09T18:08:12.397Z,2.22
2024-05-09T18:10:41.378Z,3.28
2024-05-09T18:13:10.284Z,2.83
2024-05-09T18:15:38.813Z,4.65
2024-05-09T18:18:07.656Z,7.97
2024-05-09T18:20:42.221Z,7.57
2024-05-09T18:23:14.819Z,6.45
2024-05-09T18:25:43.531Z,3.80
2024-05-09T18:28:11.086Z,4.20
2024-05-09T18:30:40.107Z,1.75
2024-05-09T18:33:10.878Z,2.58
2024-05-09T18:35:38.803Z,3.85
2024-05-09T18:38:06.351Z,3.13
2024-05-09T18:40:36.679Z,3.00
2024-05-09T18:43:08.196Z,3.75
2024-05-09T18:45:37.954Z,3.85
2024-05-09T18:48:07.374Z,3.38
2024-05-09T18:50:38.937Z,3.35
2024-05-09T18:53:13.096Z,4.35
2024-05-09T18:55:42.119Z,3.60
2024-05-09T18:58:09.880Z,3.47
2024-05-09T19:00:40.214Z,3.28
2024-05-09T19:03:13.047Z,3.40
2024-05-09T19:05:43.703Z,3.72
2024-05-09T19:08:13.038Z,2.55
2024-05-09T19:10:41.095Z,1.92
2024-05-09T19:13:12.134Z,1.80
2024-05-09T19:15:42.668Z,2.10
2024-05-09T19:18:13.037Z,3.20
2024-05-09T19:20:41.409Z,1.92
2024-05-09T19:23:08.865Z,2.92
2024-05-09T19:25:36.585Z,2.00
2024-05-09T19:28:05.488Z,2.53
2024-05-09T19:30:39.294Z,2.67
2024-05-09T19:33:12.359Z,2.97
2024-05-09T19:35:41.008Z,1.90
2024-05-09T19:38:08.625Z,2.75
2024-05-09T19:40:36.311Z,1.55
2024-05-09T19:43:05.574Z,2.22
2024-05-09T19:45:35.339Z,2.58
2024-05-09T19:48:04.870Z,3.78
2024-05-09T19:50:40.914Z,3.40
2024-05-09T19:53:14.759Z,2.50
2024-05-09T19:55:43.051Z,3.63
2024-05-09T19:58:11.272Z,3.40
2024-05-09T20:00:42.124Z,2.78
2024-05-09T20:03:13.333Z,5.82
2024-05-09T20:05:44.214Z,6.20
2024-05-09T20:08:14.010Z,5.22
2024-05-09T20:10:41.799Z,2.35
2024-05-09T20:13:09.374Z,4.25
2024-05-09T20:15:37.970Z,3.47
2024-05-09T20:18:06.933Z,3.00
2024-05-09T20:20:39.955Z,4.90
2024-05-09T20:23:11.689Z,3.50
2024-05-09T20:25:39.145Z,2.28
2024-05-09T20:28:07.527Z,2.70
2024-05-09T20:30:36.659Z,3.25
2024-05-09T20:33:09.447Z,2.95
2024-05-09T20:35:37.473Z,4.10
2024-05-09T20:38:05.943Z,4.35
2024-05-09T20:40:37.768Z,2.33
2024-05-09T20:43:09.917Z,1.50
2024-05-09T20:45:38.026Z,6.25
2024-05-09T20:48:07.182Z,3.00
2024-05-09T20:50:39.484Z,3.17
2024-05-09T20:55:39.345Z,4.68
2024-05-09T20:58:06.772Z,2.92
2024-05-09T21:00:39.886Z,2.85
2024-05-09T21:03:11.683Z,5.07
2024-05-09T21:05:40.826Z,11.43
2024-05-09T21:08:09.024Z,3.35
2024-05-09T21:10:37.313Z,4.13
2024-05-09T21:13:06.601Z,7.35
2024-05-09T21:15:36.392Z,3.72
2024-05-09T21:18:04.687Z,3.67
2024-05-09T21:20:34.767Z,3.42
2024-05-09T21:23:03.978Z,3.70
2024-05-09T21:25:32.418Z,4.65
2024-05-09T21:28:00.678Z,4.57
2024-05-09T21:30:38.373Z,4.13
2024-05-09T21:33:11.681Z,4.43
2024-05-09T21:35:41.824Z,5.32
2024-05-09T21:38:09.407Z,4.57
2024-05-09T21:40:38.077Z,2.90
2024-05-09T21:43:09.469Z,3.20
2024-05-09T21:45:37.402Z,2.42
2024-05-09T21:48:06.305Z,6.57
2024-05-09T21:50:39.991Z,7.78
2024-05-09T21:53:13.297Z,4.20
2024-05-09T21:55:42.412Z,2.20
2024-05-09T21:58:10.635Z,2.92
2024-05-09T22:00:40.222Z,2.53
2024-05-09T22:03:09.042Z,2.22
2024-05-09T22:05:38.075Z,3.10
2024-05-09T22:08:06.157Z,1.98
2024-05-09T22:10:36.466Z,1.60
2024-05-09T22:13:06.220Z,1.73
2024-05-09T22:15:39.614Z,1.75
2024-05-09T22:18:09.735Z,2.03
2024-05-09T22:20:45.090Z,2.00
2024-05-09T22:23:14.361Z,2.53
2024-05-09T22:25:42.483Z,2.83
2024-05-09T22:28:10.696Z,1.90
2024-05-09T22:30:40.027Z,3.55
2024-05-09T22:33:10.424Z,2.53
2024-05-09T22:35:40.614Z,2.65
2024-05-09T22:38:09.387Z,2.85
2024-05-09T22:40:46.112Z,3.08
2024-05-09T22:43:20.272Z,3.30
2024-05-09T22:45:49.185Z,2.60
2024-05-09T22:48:17.119Z,2.95
2024-05-09T22:50:46.061Z,1.77
2024-05-09T22:53:13.927Z,3.38
2024-05-09T22:55:41.508Z,3.40
2024-05-09T22:58:08.879Z,2.92
2024-05-09T23:00:36.443Z,2.35
2024-05-09T23:03:04.053Z,3.70
2024-05-09T23:05:32.858Z,3.38
2024-05-09T23:08:03.356Z,3.72
2024-05-09T23:10:36.153Z,4.55
2024-05-09T23:13:09.301Z,1.98
2024-05-09T23:15:38.475Z,3.08
2024-05-09T23:18:07.371Z,8.80
2024-05-09T23:20:38.623Z,12.30
2024-05-09T23:23:08.723Z,2.08
2024-05-09T23:25:37.400Z,3.53
2024-05-09T23:28:05.526Z,2.58
2024-05-09T23:30:38.085Z,2.40
2024-05-09T23:33:09.436Z,1.70
2024-05-09T23:35:38.419Z,1.90
2024-05-09T23:38:05.730Z,1.40
2024-05-09T23:40:39.335Z,2.30
2024-05-09T23:43:13.204Z,2.25
2024-05-09T23:45:41.776Z,3.35
2024-05-09T23:48:09.928Z,2.22
2024-05-09T23:50:39.885Z,1.98
2024-05-09T23:53:09.641Z,1.60
2024-05-09T23:55:38.071Z,1.40
2024-05-09T23:58:09.495Z,1.27
